Time;durP1;ratioP1;P1;durP2;ratioP2;P2;SDS_P1;SDS_P2;PMS_P1;PMS_P2;Temp;Humidity;BMP_temperature;BMP_pressure;BME280_temperature;BME280_humidity;BME280_pressure;Samples;Min_cycle;Max_cycle;Signal;HPM_P1;HPM_P2
2023/08/05 00:00:57;;;;;;;;;11.00;10.00;;;;;24.42;49.89;100706.95;110298;1250;19178;-40
2023/08/05 00:03:28;;;;;;;;;10.00;9.00;;;;;24.42;50.12;100705.64;110300;1251;20093;-39
2023/08/05 00:05:53;;;;;;;;;10.00;10.00;;;;;24.41;50.12;100705.98;110368;1251;20461;-39
2023/08/05 00:08:19;;;;;;;;;7.50;7.50;;;;;24.44;49.96;100705.13;110326;1265;18518;-40
2023/08/05 00:10:45;;;;;;;;;10.00;8.00;;;;;24.41;50.17;100699.85;110287;1251;19835;-40
2023/08/05 00:13:11;;;;;;;;;8.00;8.00;;;;;24.41;50.01;100700.99;110298;1265;19238;-40
2023/08/05 00:15:37;;;;;;;;;12.00;7.00;;;;;24.41;50.30;100699.73;110288;1250;19744;-41
2023/08/05 00:18:03;;;;;;;;;8.00;7.50;;;;;24.44;50.07;100692.52;110261;1250;19872;-39
2023/08/05 00:20:29;;;;;;;;;10.00;7.00;;;;;24.44;50.08;100693.89;110293;1265;20451;-40
2023/08/05 00:22:55;;;;;;;;;7.00;7.00;;;;;24.44;50.22;100690.15;110285;1251;21369;-40
2023/08/05 00:25:21;;;;;;;;;10.00;8.00;;;;;24.44;50.06;100690.21;110290;1251;23394;-40
2023/08/05 00:27:47;;;;;;;;;11.00;9.00;;;;;24.43;50.10;100689.26;110267;1251;22231;-40
2023/08/05 00:30:13;;;;;;;;;10.00;9.00;;;;;24.37;50.30;100685.94;110297;1250;22084;-40
2023/08/05 00:32:39;;;;;;;;;12.00;10.00;;;;;24.39;50.40;100684.98;110283;1265;22876;-40
2023/08/05 00:35:05;;;;;;;;;10.00;10.00;;;;;24.38;50.37;100680.45;110286;1251;20957;-40
2023/08/05 00:37:31;;;;;;;;;10.00;8.00;;;;;24.40;50.29;100680.42;110252;1265;18415;-39
2023/08/05 00:39:57;;;;;;;;;10.00;10.00;;;;;24.40;50.11;100677.62;110277;1250;19830;-40
2023/08/05 00:42:23;;;;;;;;;14.50;11.00;;;;;24.39;50.21;100678.52;110272;1257;20523;-40
2023/08/05 00:44:49;;;;;;;;;10.00;8.00;;;;;24.38;50.37;100683.63;110275;1265;18407;-40
2023/08/05 00:47:15;;;;;;;;;10.00;8.00;;;;;24.38;50.36;100686.25;110278;1265;18335;-40
2023/08/05 00:49:41;;;;;;;;;8.50;8.00;;;;;24.40;50.38;100684.70;110252;1250;20488;-40
2023/08/05 00:52:06;;;;;;;;;11.00;10.00;;;;;24.39;50.28;100688.88;110256;1265;18442;-40
2023/08/05 00:54:33;;;;;;;;;12.00;10.50;;;;;24.40;50.35;100689.30;110289;1250;20367;-40
2023/08/05 00:56:58;;;;;;;;;10.00;10.00;;;;;24.39;50.26;100688.16;110268;1251;20498;-40
2023/08/05 00:59:24;;;;;;;;;10.00;10.00;;;;;24.37;50.41;100687.42;110171;1251;19866;-39
2023/08/05 01:01:50;;;;;;;;;11.00;10.00;;;;;24.40;50.25;100681.48;110286;1251;20042;-40
2023/08/05 01:04:16;;;;;;;;;10.00;8.50;;;;;24.39;50.48;100681.81;110272;1257;20493;-39
2023/08/05 01:06:42;;;;;;;;;9.00;7.00;;;;;24.38;50.56;100678.38;110271;1250;19800;-40
2023/08/05 01:09:08;;;;;;;;;12.00;10.50;;;;;24.39;50.50;100675.19;110266;1250;19803;-39
2023/08/05 01:11:34;;;;;;;;;11.00;10.00;;;;;24.38;50.51;100673.07;110296;1251;20500;-39
2023/08/05 01:14:00;;;;;;;;;9.00;9.00;;;;;24.41;50.29;100679.48;110362;1251;21739;-40
2023/08/05 01:16:26;;;;;;;;;12.00;9.00;;;;;24.42;50.31;100683.73;110341;1265;22482;-39
2023/08/05 01:18:52;;;;;;;;;13.00;11.00;;;;;24.39;50.39;100679.63;110284;1251;20646;-39
2023/08/05 01:21:18;;;;;;;;;12.00;10.00;;;;;24.36;50.43;100677.86;110368;1250;20167;-40
2023/08/05 01:23:44;;;;;;;;;10.00;8.00;;;;;24.36;50.55;100672.39;110393;1265;18663;-40
2023/08/05 01:26:10;;;;;;;;;10.00;8.00;;;;;24.37;50.49;100672.25;110352;1265;21085;-40
2023/08/05 01:28:37;;;;;;;;;11.00;10.00;;;;;24.38;50.43;100676.07;110337;1249;19737;-39
2023/08/05 01:31:03;;;;;;;;;11.00;10.00;;;;;24.38;50.66;100677.55;110270;1257;20426;-40
2023/08/05 01:33:29;;;;;;;;;12.00;12.00;;;;;24.39;50.64;100681.20;110290;1266;18968;-40
2023/08/05 01:35:54;;;;;;;;;11.00;10.00;;;;;24.38;50.67;100676.23;110285;1265;18512;-40
2023/08/05 01:38:21;;;;;;;;;9.00;7.00;;;;;24.38;50.81;100675.04;110265;1265;18923;-40
2023/08/05 01:40:46;;;;;;;;;11.00;8.00;;;;;24.38;50.59;100662.34;110237;1250;20943;-40
2023/08/05 01:43:12;;;;;;;;;11.00;11.00;;;;;24.39;50.64;100658.47;110285;1265;18250;-40
2023/08/05 01:45:38;;;;;;;;;12.00;11.00;;;;;24.36;50.74;100655.30;110294;1265;18600;-40
2023/08/05 01:48:05;;;;;;;;;12.00;11.00;;;;;24.34;50.70;100650.45;110273;1265;19321;-40
2023/08/05 01:50:31;;;;;;;;;11.50;10.00;;;;;24.36;50.75;100654.81;110259;1251;22930;-40
2023/08/05 01:52:57;;;;;;;;;9.00;8.00;;;;;24.35;50.88;100654.60;110289;1265;22773;-40
2023/08/05 01:55:23;;;;;;;;;10.00;10.00;;;;;24.36;50.80;100651.63;110261;1257;22992;-40
2023/08/05 01:57:49;;;;;;;;;11.00;10.00;;;;;24.36;50.66;100648.40;110296;1265;19332;-40
2023/08/05 02:00:15;;;;;;;;;9.00;8.00;;;;;24.35;50.73;100653.56;110274;1265;18371;-40
2023/08/05 02:02:40;;;;;;;;;11.00;10.00;;;;;24.35;50.76;100662.70;110271;1251;20511;-40
2023/08/05 02:05:06;;;;;;;;;10.00;10.00;;;;;24.34;51.01;100663.54;110274;1249;19374;-40
2023/08/05 02:07:32;;;;;;;;;9.50;9.50;;;;;24.34;50.75;100658.77;110264;1251;20029;-40
2023/08/05 02:09:58;;;;;;;;;7.00;7.00;;;;;24.36;50.77;100663.61;110300;1251;20514;-40
2023/08/05 02:12:24;;;;;;;;;7.00;7.00;;;;;24.34;50.61;100660.70;110291;1249;19480;-39
2023/08/05 02:14:50;;;;;;;;;10.00;7.00;;;;;24.33;50.87;100663.83;110284;1251;19818;-40
2023/08/05 02:17:16;;;;;;;;;9.50;9.00;;;;;24.32;50.65;100666.68;110265;1251;20542;-41
2023/08/05 02:19:42;;;;;;;;;6.50;6.50;;;;;24.32;51.06;100666.68;110310;1251;19924;-40
2023/08/05 02:22:08;;;;;;;;;10.00;7.00;;;;;24.30;50.90;100667.59;110281;1249;19855;-41
2023/08/05 02:24:34;;;;;;;;;9.00;9.00;;;;;24.31;50.89;100667.86;110265;1251;20561;-40
2023/08/05 02:27:00;;;;;;;;;6.00;6.00;;;;;24.32;50.64;100670.08;110305;1251;19812;-40
2023/08/05 02:29:26;;;;;;;;;11.00;10.00;;;;;24.33;50.87;100673.91;110219;1265;19915;-40
2023/08/05 02:31:52;;;;;;;;;10.00;9.00;;;;;24.33;50.73;100673.41;110310;1251;20621;-41
2023/08/05 02:34:18;;;;;;;;;;;;;;;24.32;50.72;100678.02;110331;1265;18694;-40
2023/08/05 02:36:44;;;;;;;;;9.00;9.00;;;;;24.33;50.85;100675.49;110336;1250;22825;-40
2023/08/05 02:39:09;;;;;;;;;9.00;9.00;;;;;24.32;50.78;100678.84;110284;1265;21704;-40
2023/08/05 02:41:35;;;;;;;;;9.00;7.00;;;;;24.34;50.89;100682.05;110281;1249;20899;-41
2023/08/05 02:44:01;;;;;;;;;9.00;7.00;;;;;24.33;50.93;100676.42;110277;1249;20824;-40
2023/08/05 02:46:27;;;;;;;;;10.00;9.00;;;;;24.32;50.70;100672.77;110326;1265;19337;-39
2023/08/05 02:48:53;;;;;;;;;8.00;7.00;;;;;24.31;50.94;100672.84;110323;1250;19385;-40
2023/08/05 02:51:19;;;;;;;;;7.00;7.00;;;;;24.30;50.71;100675.04;110276;1265;19957;-40
2023/08/05 02:53:45;;;;;;;;;12.00;10.00;;;;;24.30;50.64;100677.02;110288;1250;20744;-40
2023/08/05 02:56:11;;;;;;;;;7.00;7.00;;;;;24.33;50.81;100680.81;110364;1251;19569;-40
2023/08/05 02:58:37;;;;;;;;;7.00;7.00;;;;;24.31;50.71;100680.67;110312;1251;19829;-40
2023/08/05 03:01:03;;;;;;;;;6.00;6.00;;;;;24.28;50.75;100674.02;110255;1250;20875;-40
2023/08/05 03:03:29;;;;;;;;;9.00;9.00;;;;;24.30;50.82;100671.00;110267;1250;19514;-40
2023/08/05 03:05:55;;;;;;;;;7.00;7.00;;;;;24.31;50.80;100664.73;110275;1265;18355;-40
2023/08/05 03:08:21;;;;;;;;;7.00;7.00;;;;;24.31;50.66;100650.95;110281;1250;20601;-40
2023/08/05 03:10:47;;;;;;;;;8.00;8.00;;;;;24.31;50.65;100650.83;110369;1265;18096;-43
2023/08/05 03:13:13;;;;;;;;;9.00;9.00;;;;;24.32;50.57;100647.46;110284;1265;18701;-38
2023/08/05 03:15:39;;;;;;;;;7.00;7.00;;;;;24.32;50.69;100651.80;110285;1250;20513;-39
2023/08/05 03:18:04;;;;;;;;;10.00;9.00;;;;;24.31;50.57;100652.04;110265;1265;18371;-39
2023/08/05 03:20:30;;;;;;;;;7.00;7.00;;;;;24.32;50.60;100645.55;110265;1249;22325;-40
2023/08/05 03:22:56;;;;;;;;;7.00;7.00;;;;;24.30;50.57;100640.12;110298;1251;20763;-40
2023/08/05 03:25:22;;;;;;;;;7.00;7.00;;;;;24.28;50.74;100643.16;110258;1266;20364;-39
2023/08/05 03:27:49;;;;;;;;;7.00;7.00;;;;;24.27;50.49;100655.53;110281;1251;19824;-39
2023/08/05 03:30:14;;;;;;;;;7.00;7.00;;;;;24.28;50.64;100655.02;110281;1265;19368;-40
2023/08/05 03:32:40;;;;;;;;;9.50;8.00;;;;;24.29;50.51;100661.59;110322;1249;20655;-40
2023/08/05 03:35:06;;;;;;;;;7.00;7.00;;;;;24.28;50.69;100674.40;110307;1265;18414;-40
2023/08/05 03:37:32;;;;;;;;;7.00;7.00;;;;;24.29;50.52;100681.79;110257;1265;20546;-39
2023/08/05 03:39:58;;;;;;;;;6.33;6.33;;;;;24.29;50.71;100682.66;110279;1250;21305;-40
2023/08/05 03:42:24;;;;;;;;;7.00;7.00;;;;;24.29;50.79;100688.91;110342;1250;21545;-40
2023/08/05 03:44:50;;;;;;;;;9.00;7.00;;;;;24.32;50.57;100691.94;110261;1250;23384;-40
2023/08/05 03:47:16;;;;;;;;;7.00;7.00;;;;;24.27;50.71;100686.52;110255;1250;20644;-40
2023/08/05 03:49:42;;;;;;;;;10.00;9.00;;;;;24.26;50.66;100681.17;110278;1251;21104;-40
2023/08/05 03:52:08;;;;;;;;;7.00;7.00;;;;;24.26;50.60;100670.27;110287;1249;20628;-41
2023/08/05 03:54:34;;;;;;;;;10.00;7.00;;;;;24.26;50.48;100662.33;110258;1250;19812;-40
2023/08/05 03:57:02;;;;;;;;;9.00;9.00;;;;;24.26;50.48;100662.39;110271;1265;21346;-39
2023/08/05 03:59:28;;;;;;;;;10.00;9.00;;;;;24.27;50.50;100667.09;110242;1251;22120;-39
2023/08/05 04:01:54;;;;;;;;;6.00;6.00;;;;;24.26;50.51;100672.30;110280;1250;22895;-39
2023/08/05 04:04:20;;;;;;;;;7.00;7.00;;;;;24.28;50.79;100679.63;110327;1250;19769;-39
2023/08/05 04:06:46;;;;;;;;;10.00;10.00;;;;;24.29;50.50;100677.90;110317;1249;20662;-39
2023/08/05 04:09:12;;;;;;;;;9.00;7.00;;;;;24.31;50.59;100685.82;110284;1265;18230;-39
2023/08/05 04:11:38;;;;;;;;;6.00;6.00;;;;;24.27;50.77;100692.44;110357;1251;19873;-39
2023/08/05 04:14:04;;;;;;;;;10.00;9.00;;;;;24.26;50.77;100698.30;110337;1252;20551;-38
2023/08/05 04:16:30;;;;;;;;;7.00;7.00;;;;;24.28;50.56;100698.34;110347;1265;18441;-39
2023/08/05 04:18:56;;;;;;;;;8.00;7.00;;;;;24.28;50.46;100692.16;110403;1250;19799;-40
2023/08/05 04:21:25;;;;;;;;;6.50;6.50;;;;;24.26;50.58;100687.57;110329;1265;19079;-40
2023/08/05 04:23:51;;;;;;;;;7.00;6.00;;;;;24.24;50.72;100691.13;110319;1251;21989;-40
2023/08/05 04:26:18;;;;;;;;;6.00;5.00;;;;;24.26;50.57;100683.96;110275;1250;19929;-40
2023/08/05 04:28:43;;;;;;;;;9.00;9.00;;;;;24.25;50.56;100682.37;110260;1250;22734;-39
2023/08/05 04:31:09;;;;;;;;;7.00;7.00;;;;;24.26;50.67;100682.91;110307;1250;22411;-41
2023/08/05 04:33:35;;;;;;;;;7.00;6.00;;;;;24.26;50.72;100689.20;110296;1265;22831;-40
2023/08/05 04:36:01;;;;;;;;;6.00;5.00;;;;;24.22;50.84;100680.38;110328;1249;22849;-38
2023/08/05 04:38:27;;;;;;;;;9.50;6.00;;;;;24.21;50.74;100688.44;110304;1251;18478;-39
2023/08/05 04:40:53;;;;;;;;;6.00;6.00;;;;;24.25;50.70;100698.69;110279;1251;19769;-41
2023/08/05 04:43:19;;;;;;;;;9.00;9.00;;;;;24.26;50.57;100705.30;110231;1265;19357;-40
2023/08/05 04:45:45;;;;;;;;;9.00;9.00;;;;;24.27;50.61;100710.17;110290;1265;18180;-39
2023/08/05 04:48:11;;;;;;;;;7.00;6.50;;;;;24.29;50.47;100708.67;110365;1265;18373;-40
2023/08/05 04:50:37;;;;;;;;;10.00;10.00;;;;;24.29;50.70;100709.44;110315;1265;19267;-40
2023/08/05 04:53:03;;;;;;;;;10.50;9.50;;;;;24.28;50.80;100710.65;110254;1250;19721;-40
2023/08/05 04:55:29;;;;;;;;;10.00;10.00;;;;;24.27;50.81;100707.59;110242;1249;19840;-40
2023/08/05 04:57:56;;;;;;;;;10.00;10.00;;;;;24.25;50.71;100703.83;110335;1251;20531;-38
2023/08/05 05:00:22;;;;;;;;;12.00;11.00;;;;;24.19;51.08;100696.99;110364;1265;19995;-39
2023/08/05 05:02:48;;;;;;;;;10.00;10.00;;;;;24.20;50.77;100696.94;110308;1265;18489;-40
2023/08/05 05:05:14;;;;;;;;;11.00;11.00;;;;;24.20;50.77;100691.89;110283;1251;20860;-39
2023/08/05 05:07:40;;;;;;;;;14.00;12.00;;;;;24.21;50.94;100686.63;110307;1257;19714;-39
2023/08/05 05:10:06;;;;;;;;;10.00;9.00;;;;;24.16;51.22;100686.38;110257;1265;21087;-40
2023/08/05 05:12:32;;;;;;;;;11.00;10.00;;;;;24.17;51.11;100688.72;110096;1251;20150;-40
2023/08/05 05:14:57;;;;;;;;;14.00;14.00;;;;;24.19;51.00;100692.25;110267;1251;21120;-40
2023/08/05 05:17:23;;;;;;;;;12.00;11.00;;;;;24.15;51.35;100694.54;110262;1265;18499;-42
2023/08/05 05:19:49;;;;;;;;;12.00;11.00;;;;;24.15;51.21;100697.55;110244;1265;19199;-40
2023/08/05 05:22:15;;;;;;;;;11.50;11.00;;;;;24.14;51.25;100696.86;110186;1249;18473;-39
2023/08/05 05:24:41;;;;;;;;;13.00;11.50;;;;;24.13;51.50;100694.35;110277;1265;18439;-38
2023/08/05 05:27:08;;;;;;;;;14.00;12.00;;;;;24.15;51.35;100687.92;110276;1265;19694;-39
2023/08/05 05:29:35;;;;;;;;;15.00;11.00;;;;;24.14;51.54;100689.42;110356;1250;22492;-38
2023/08/05 05:32:01;;;;;;;;;11.00;11.00;;;;;24.15;51.59;100694.81;110315;1265;21000;-38
2023/08/05 05:34:26;;;;;;;;;14.00;12.00;;;;;24.11;51.75;100696.45;110287;1251;20490;-40
2023/08/05 05:36:52;;;;;;;;;17.00;11.00;;;;;24.14;51.58;100696.63;110289;1257;22222;-39
2023/08/05 05:39:18;;;;;;;;;14.00;12.00;;;;;24.11;51.99;100699.63;110242;1265;18344;-39
2023/08/05 05:41:44;;;;;;;;;;;;;;;24.12;52.06;100701.10;110289;1251;20527;-38
2023/08/05 05:44:10;;;;;;;;;11.00;11.00;;;;;24.14;52.34;100700.85;110292;1266;19733;-39
2023/08/05 05:46:36;;;;;;;;;15.50;15.00;;;;;24.06;52.94;100700.67;110262;1265;19918;-39
2023/08/05 05:49:03;;;;;;;;;14.00;13.00;;;;;24.09;52.64;100702.34;110263;1265;19529;-39
2023/08/05 05:51:29;;;;;;;;;15.00;14.00;;;;;24.13;52.64;100695.72;110252;1251;20066;-38
2023/08/05 05:53:55;;;;;;;;;12.00;12.00;;;;;24.13;52.98;100691.99;110275;1251;22982;-39
2023/08/05 05:56:21;;;;;;;;;15.00;12.00;;;;;24.14;53.07;100693.68;110257;1249;20855;-38
2023/08/05 05:58:47;;;;;;;;;11.00;10.00;;;;;24.18;52.92;100693.14;110287;1250;22001;-38
2023/08/05 06:01:13;;;;;;;;;11.00;10.00;;;;;24.21;52.56;100690.91;110272;1251;20038;-39
2023/08/05 06:03:40;;;;;;;;;10.50;10.00;;;;;24.24;52.61;100699.02;110269;1265;22789;-38
2023/08/05 06:06:06;;;;;;;;;10.00;10.00;;;;;24.23;52.51;100693.56;110286;1250;21248;-39
2023/08/05 06:08:34;;;;;;;;;9.00;9.00;;;;;24.19;52.65;100688.08;110293;1251;19904;-38
2023/08/05 06:11:00;;;;;;;;;10.00;9.00;;;;;24.14;53.00;100684.83;110246;1265;22741;-37
2023/08/05 06:13:26;;;;;;;;;10.00;9.00;;;;;24.18;52.99;100686.45;110283;1265;18237;-38
2023/08/05 06:15:52;;;;;;;;;9.00;8.00;;;;;24.22;53.00;100691.98;110287;1251;22052;-40
2023/08/05 06:18:18;;;;;;;;;9.00;7.00;;;;;24.24;53.11;100691.74;110281;1265;21628;-40
2023/08/05 06:20:44;;;;;;;;;10.00;9.00;;;;;24.24;53.01;100686.20;110272;1251;22376;-38
2023/08/05 06:23:10;;;;;;;;;7.00;7.00;;;;;24.26;53.46;100686.48;110258;1251;23103;-39
2023/08/05 06:25:37;;;;;;;;;10.50;10.00;;;;;24.29;53.31;100687.60;110280;1251;20848;-39
2023/08/05 06:28:03;;;;;;;;;6.00;6.00;;;;;24.27;53.17;100690.14;110273;1265;18506;-39
2023/08/05 06:30:29;;;;;;;;;10.00;9.00;;;;;24.30;52.57;100685.01;110261;1257;19806;-39
2023/08/05 06:32:55;;;;;;;;;9.00;9.00;;;;;24.31;52.76;100679.19;110278;1265;19232;-40
2023/08/05 06:35:21;;;;;;;;;10.00;9.00;;;;;24.29;52.43;100675.17;110249;1251;19785;-39
2023/08/05 06:37:47;;;;;;;;;9.00;7.00;;;;;24.26;52.42;100678.80;110346;1251;22984;-39
2023/08/05 06:40:13;;;;;;;;;7.00;7.00;;;;;24.28;52.62;100679.66;110326;1250;20807;-40
2023/08/05 06:42:39;;;;;;;;;6.50;6.50;;;;;24.29;52.54;100673.81;110268;1265;18170;-40
2023/08/05 06:45:05;;;;;;;;;7.00;7.00;;;;;24.25;52.74;100669.02;110181;1251;19795;-38
2023/08/05 06:47:31;;;;;;;;;8.00;7.00;;;;;24.28;52.54;100668.55;110222;1250;20737;-39
2023/08/05 06:49:57;;;;;;;;;5.00;5.00;;;;;24.32;52.57;100672.84;110349;1249;19417;-39
2023/08/05 06:52:23;;;;;;;;;6.00;6.00;;;;;24.30;52.63;100669.94;110351;1265;22882;-39
2023/08/05 06:54:49;;;;;;;;;7.00;6.00;;;;;24.32;52.50;100672.66;110368;1265;19525;-39
2023/08/05 06:57:15;;;;;;;;;6.00;6.00;;;;;24.34;52.42;100678.11;110366;1265;18310;-39
2023/08/05 06:59:41;;;;;;;;;5.50;5.50;;;;;24.35;52.47;100666.31;110359;1265;18544;-40
2023/08/05 07:02:07;;;;;;;;;6.00;6.00;;;;;24.34;52.36;100658.06;110384;1257;19120;-39
2023/08/05 07:04:33;;;;;;;;;5.50;5.50;;;;;24.37;52.32;100661.74;110386;1265;18828;-38
2023/08/05 07:06:59;;;;;;;;;6.00;6.00;;;;;24.35;52.16;100672.95;110361;1257;19827;-38
2023/08/05 07:09:25;;;;;;;;;9.00;7.00;;;;;24.33;52.23;100671.72;110328;1251;20639;-39
2023/08/05 07:11:54;;;;;;;;;8.00;6.50;;;;;24.36;52.02;100666.14;110270;1265;19636;-40
2023/08/05 07:14:20;;;;;;;;;7.00;7.00;;;;;24.35;52.08;100655.98;110268;1265;19948;-40
2023/08/05 07:16:46;;;;;;;;;7.00;6.00;;;;;24.38;51.92;100657.02;110244;1265;20698;-40
2023/08/05 07:19:12;;;;;;;;;9.00;7.00;;;;;24.38;52.15;100656.97;110270;1265;18184;-40
2023/08/05 07:21:38;;;;;;;;;7.00;7.00;;;;;24.35;52.27;100657.23;110241;1251;18404;-39
2023/08/05 07:24:04;;;;;;;;;6.00;6.00;;;;;24.35;52.19;100659.20;110278;1265;20675;-39
2023/08/05 07:26:30;;;;;;;;;7.00;7.00;;;;;24.33;52.27;100658.13;110121;1266;20603;-40
2023/08/05 07:28:58;;;;;;;;;7.00;6.50;;;;;24.31;52.57;100652.75;110283;1265;18624;-39
2023/08/05 07:31:24;;;;;;;;;10.00;9.00;;;;;24.34;52.77;100654.52;109879;1250;495191;-40
2023/08/05 07:33:51;;;;;;;;;9.50;8.00;;;;;24.34;52.72;100654.51;110268;1265;20901;-40
2023/08/05 07:36:17;;;;;;;;;9.50;8.00;;;;;24.33;52.74;100649.92;110243;1265;19491;-39
2023/08/05 07:38:45;;;;;;;;;9.00;9.00;;;;;24.38;52.41;100641.08;110309;1265;19346;-41
2023/08/05 07:41:11;;;;;;;;;9.00;9.00;;;;;24.38;52.19;100646.02;110269;1265;19555;-40
2023/08/05 07:43:38;;;;;;;;;7.00;7.00;;;;;24.37;52.15;100653.25;110308;1265;18765;-39
2023/08/05 07:46:04;;;;;;;;;10.00;9.00;;;;;24.40;52.29;100663.27;110254;1265;22432;-40
2023/08/05 07:48:34;;;;;;;;;11.00;10.00;;;;;24.35;51.79;100672.83;110258;1266;22689;-41
2023/08/05 07:51:00;;;;;;;;;7.00;7.00;;;;;24.34;51.75;100680.89;110272;1250;18941;-40
2023/08/05 07:53:29;;;;;;;;;11.00;10.00;;;;;24.37;51.93;100674.89;110282;1249;20770;-40
2023/08/05 07:55:55;;;;;;;;;10.00;9.50;;;;;24.31;51.71;100672.66;110242;1249;21944;-40
2023/08/05 07:58:21;;;;;;;;;10.00;10.00;;;;;24.30;51.86;100673.29;110254;1265;18441;-40
2023/08/05 08:00:47;;;;;;;;;11.00;9.00;;;;;24.33;52.02;100679.16;110315;1251;20577;-40
2023/08/05 08:03:13;;;;;;;;;11.00;11.00;;;;;24.34;52.02;100683.63;110275;1265;19855;-41
2023/08/05 08:05:39;;;;;;;;;10.00;10.00;;;;;24.34;51.75;100683.75;110280;1265;19953;-41
2023/08/05 08:08:05;;;;;;;;;11.00;11.00;;;;;24.33;51.58;100679.81;110249;1251;20680;-39
2023/08/05 08:10:31;;;;;;;;;10.00;10.00;;;;;24.33;51.68;100680.52;110289;1265;22875;-39
2023/08/05 08:12:57;;;;;;;;;10.00;10.00;;;;;24.34;51.74;100676.18;110284;1265;19871;-39
2023/08/05 08:15:23;;;;;;;;;11.50;11.00;;;;;24.33;51.79;100677.52;110265;1250;19085;-40
2023/08/05 08:17:49;;;;;;;;;12.00;12.00;;;;;24.34;51.89;100673.28;110236;1251;22460;-39
2023/08/05 08:20:15;;;;;;;;;10.00;10.00;;;;;24.30;51.65;100667.97;110233;1251;20446;-39
2023/08/05 08:22:41;;;;;;;;;13.00;12.00;;;;;24.29;51.76;100665.42;110219;1265;19427;-43
2023/08/05 08:25:07;;;;;;;;;13.00;11.00;;;;;24.28;51.91;100659.14;110284;1249;19745;-39
2023/08/05 08:27:33;;;;;;;;;15.00;12.00;;;;;24.28;51.73;100652.57;110171;1251;19886;-41
2023/08/05 08:29:59;;;;;;;;;15.50;14.50;;;;;24.29;51.65;100645.55;110205;1265;20892;-41
2023/08/05 08:32:25;;;;;;;;;11.00;11.00;;;;;24.30;51.60;100637.98;110275;1265;19974;-39
2023/08/05 08:34:51;;;;;;;;;10.00;10.00;;;;;24.31;51.80;100630.35;110298;1265;21497;-40
2023/08/05 08:37:17;;;;;;;;;11.00;11.00;;;;;24.31;51.63;100631.83;110258;1265;19114;-40
2023/08/05 08:39:43;;;;;;;;;14.00;14.00;;;;;24.30;51.65;100630.48;110245;1250;19710;-40
2023/08/05 08:42:09;;;;;;;;;12.50;12.50;;;;;24.29;51.79;100628.35;110250;1265;20059;-41
2023/08/05 08:44:35;;;;;;;;;14.00;12.00;;;;;24.29;51.58;100633.40;110196;1265;20639;-40
2023/08/05 08:47:01;;;;;;;;;18.50;17.00;;;;;24.29;51.81;100628.09;110311;1265;19831;-40
2023/08/05 08:49:27;;;;;;;;;15.00;15.00;;;;;24.28;51.66;100630.77;110247;1265;18687;-40
2023/08/05 08:51:53;;;;;;;;;11.00;11.00;;;;;24.29;51.77;100629.55;110262;1265;20354;-39
2023/08/05 08:54:20;;;;;;;;;14.50;11.50;;;;;24.32;51.40;100626.89;110249;1249;19856;-40
2023/08/05 08:56:46;;;;;;;;;12.00;12.00;;;;;24.29;51.52;100619.17;110319;1265;20451;-40
2023/08/05 08:59:12;;;;;;;;;12.00;10.00;;;;;24.27;51.64;100609.60;110309;1265;20927;-41
2023/08/05 09:01:38;;;;;;;;;10.50;10.50;;;;;24.29;51.60;100607.23;110243;1265;20105;-41
2023/08/05 09:04:04;;;;;;;;;11.50;11.50;;;;;24.30;51.49;100602.83;110234;1251;22255;-41
2023/08/05 09:06:30;;;;;;;;;11.00;10.00;;;;;24.30;51.50;100605.17;110242;1265;22226;-40
2023/08/05 09:08:56;;;;;;;;;11.00;11.00;;;;;24.30;51.60;100602.18;110276;1249;18774;-40
2023/08/05 09:11:22;;;;;;;;;11.50;11.00;;;;;24.29;51.35;100600.81;110269;1250;19996;-40
2023/08/05 09:13:50;;;;;;;;;12.00;12.00;;;;;24.29;51.32;100603.13;110269;1251;20535;-40
2023/08/05 09:16:16;;;;;;;;;11.00;9.50;;;;;24.30;51.45;100605.08;110285;1265;18671;-40
2023/08/05 09:18:42;;;;;;;;;12.00;10.00;;;;;24.33;51.41;100598.63;110272;1251;19773;-41
2023/08/05 09:21:07;;;;;;;;;16.00;15.00;;;;;24.31;51.23;100599.97;110317;1251;20520;-41
2023/08/05 09:23:33;;;;;;;;;12.67;12.00;;;;;24.31;51.41;100605.16;110261;1250;20226;-40
2023/08/05 09:25:59;;;;;;;;;14.00;13.00;;;;;24.30;51.43;100604.75;110325;1265;19965;-38
2023/08/05 09:28:25;;;;;;;;;14.50;12.00;;;;;24.33;51.45;100599.10;110303;1249;20697;-40
2023/08/05 09:30:51;;;;;;;;;13.50;12.50;;;;;24.29;51.34;100594.63;110287;1249;18931;-40
2023/08/05 09:33:18;;;;;;;;;13.00;12.00;;;;;24.31;51.50;100589.95;110261;1250;19869;-39
2023/08/05 09:35:47;;;;;;;;;11.00;11.00;;;;;24.31;51.42;100590.83;110289;1265;19369;-41
2023/08/05 09:38:13;;;;;;;;;11.00;10.00;;;;;24.29;51.30;100588.38;110306;1265;18616;-41
2023/08/05 09:40:42;;;;;;;;;11.00;11.00;;;;;24.29;51.40;100583.95;110271;1265;18481;-40
2023/08/05 09:43:09;;;;;;;;;11.00;11.00;;;;;24.29;51.49;100580.34;110338;1251;19716;-40
2023/08/05 09:45:35;;;;;;;;;10.00;10.00;;;;;24.29;51.37;100580.39;110289;1251;22165;-41
2023/08/05 09:48:03;;;;;;;;;11.00;11.00;;;;;24.29;51.42;100577.66;110271;1257;18735;-39
2023/08/05 09:50:31;;;;;;;;;11.00;11.00;;;;;24.31;51.49;100578.52;110275;1265;22206;-39
2023/08/05 09:52:57;;;;;;;;;11.00;10.67;;;;;24.29;51.43;100579.08;110319;1265;19532;-38
2023/08/05 09:55:23;;;;;;;;;11.00;9.50;;;;;24.30;51.68;100579.57;110324;1265;20024;-39
2023/08/05 09:57:49;;;;;;;;;11.50;11.00;;;;;24.32;51.45;100582.43;110336;1265;19500;-40
2023/08/05 10:00:15;;;;;;;;;10.00;9.50;;;;;24.29;51.53;100578.14;110361;1265;22656;-40
2023/08/05 10:02:44;;;;;;;;;15.00;11.50;;;;;24.32;51.27;100582.54;110322;1265;19156;-40
2023/08/05 10:05:12;;;;;;;;;12.00;11.00;;;;;24.30;51.58;100580.22;110371;1265;19296;-39
2023/08/05 10:07:41;;;;;;;;;12.00;11.00;;;;;24.30;51.46;100585.37;110325;1250;22466;-40
2023/08/05 10:10:07;;;;;;;;;11.00;11.00;;;;;24.27;51.47;100590.45;110326;1265;20140;-40
2023/08/05 10:12:34;;;;;;;;;10.00;10.00;;;;;24.29;51.49;100592.34;110324;1265;19477;-42
2023/08/05 10:15:00;;;;;;;;;15.00;12.00;;;;;24.30;51.54;100593.70;110273;1265;19960;-40
2023/08/05 10:17:27;;;;;;;;;11.00;10.00;;;;;24.30;51.49;100593.52;110247;1265;20288;-39
2023/08/05 10:19:54;;;;;;;;;15.00;15.00;;;;;24.29;51.68;100592.83;110237;1257;20711;-40
2023/08/05 10:22:20;;;;;;;;;16.00;14.00;;;;;24.30;51.66;100590.08;110283;1265;18328;-39
2023/08/05 10:24:46;;;;;;;;;12.00;11.00;;;;;24.30;51.53;100586.52;110317;1265;19419;-38
2023/08/05 10:27:13;;;;;;;;;11.67;11.67;;;;;24.27;51.85;100588.48;110276;1265;21974;-39
2023/08/05 10:29:39;;;;;;;;;15.00;14.00;;;;;24.27;51.68;100585.35;110319;1265;19986;-39
2023/08/05 10:32:05;;;;;;;;;16.00;14.00;;;;;24.28;51.76;100588.46;110295;1265;18663;-38
2023/08/05 10:34:34;;;;;;;;;15.00;14.00;;;;;24.30;51.82;100588.71;110280;1265;19403;-39
2023/08/05 10:37:01;;;;;;;;;14.00;13.00;;;;;24.32;51.99;100589.94;110256;1265;20329;-40
2023/08/05 10:39:28;;;;;;;;;13.50;10.50;;;;;24.32;52.09;100587.58;110226;1265;18981;-39
2023/08/05 10:41:53;;;;;;;;;12.00;11.00;;;;;24.32;52.04;100584.46;110223;1265;19315;-39
2023/08/05 10:44:20;;;;;;;;;15.00;12.00;;;;;24.32;52.25;100581.89;110288;1265;20208;-39
2023/08/05 10:46:46;;;;;;;;;11.00;11.00;;;;;24.30;52.55;100578.85;110241;1265;20026;-39
2023/08/05 10:49:11;;;;;;;;;11.00;11.00;;;;;24.29;52.39;100577.55;110345;1265;19270;-39
2023/08/05 10:51:37;;;;;;;;;12.50;12.50;;;;;24.30;52.36;100573.87;110350;1251;19814;-39
2023/08/05 10:54:03;;;;;;;;;11.50;11.00;;;;;24.31;52.42;100567.56;110294;1265;18524;-40
2023/08/05 10:56:29;;;;;;;;;11.00;11.00;;;;;24.31;52.39;100565.80;110273;1265;23100;-40
2023/08/05 10:58:55;;;;;;;;;13.50;12.50;;;;;24.30;52.34;100560.50;110269;1265;19744;-41
2023/08/05 11:01:21;;;;;;;;;14.50;14.00;;;;;24.32;52.53;100555.05;110284;1265;18481;-40
2023/08/05 11:03:47;;;;;;;;;11.50;11.50;;;;;24.28;52.83;100552.45;110267;1265;19247;-40